createdAt,value
2023-01-21T00:00:10.269Z,83.75
2023-01-21T00:02:37.014Z,83.86
2023-01-21T00:05:03.994Z,83.82
2023-01-21T00:07:30.780Z,83.99
2023-01-21T00:09:57.604Z,84.11
2023-01-21T00:12:24.320Z,84.08
2023-01-21T00:14:51.078Z,83.39
2023-01-21T00:17:17.835Z,83.50
2023-01-21T00:19:44.637Z,84.02
2023-01-21T00:22:11.412Z,83.72
2023-01-21T00:24:38.090Z,83.45
2023-01-21T00:27:04.872Z,83.20
2023-01-21T00:29:31.641Z,83.44
2023-01-21T00:31:58.383Z,83.19
2023-01-21T00:34:25.152Z,83.34
2023-01-21T00:36:52.141Z,82.99
2023-01-21T00:39:18.972Z,83.35
2023-01-21T00:41:45.775Z,83.12
2023-01-21T00:44:12.550Z,83.49
2023-01-21T00:46:39.340Z,83.61
2023-01-21T00:49:06.201Z,84.00
2023-01-21T00:51:33.736Z,83.99
2023-01-21T00:54:00.524Z,83.84
2023-01-21T00:56:27.305Z,83.77
2023-01-21T00:58:54.428Z,83.81
2023-01-21T01:01:22.009Z,83.21
2023-01-21T01:03:50.185Z,82.94
2023-01-21T01:06:19.624Z,83.22
2023-01-21T01:08:46.822Z,83.26
2023-01-21T01:11:13.913Z,83.67
2023-01-21T01:13:40.820Z,83.13
2023-01-21T01:16:08.047Z,83.17
2023-01-21T01:18:35.847Z,82.95
2023-01-21T01:21:03.484Z,82.84
2023-01-21T01:23:30.246Z,82.98
2023-01-21T01:25:57.812Z,83.69
2023-01-21T01:28:25.007Z,83.50
2023-01-21T01:30:52.092Z,83.31
2023-01-21T01:33:19.381Z,83.34
2023-01-21T01:35:49.461Z,82.86
2023-01-21T01:38:19.946Z,83.03
2023-01-21T01:40:48.176Z,82.99
2023-01-21T01:43:20.515Z,83.61
2023-01-21T01:45:48.186Z,83.08
2023-01-21T01:48:27.175Z,83.30
2023-01-21T01:50:55.939Z,82.65
2023-01-21T01:53:23.240Z,82.90
2023-01-21T01:55:50.028Z,83.51
2023-01-21T01:58:17.576Z,83.24
2023-01-21T02:00:44.630Z,83.31
2023-01-21T02:03:30.154Z,83.37
2023-01-21T02:05:57.029Z,83.43
2023-01-21T02:08:24.799Z,83.31
2023-01-21T02:10:51.801Z,83.53
2023-01-21T02:13:18.591Z,83.36
2023-01-21T02:16:23.935Z,83.33
2023-01-21T02:19:19.805Z,83.31
2023-01-21T02:21:55.737Z,83.22
2023-01-21T02:24:40.536Z,83.19
2023-01-21T02:27:19.133Z,83.60
2023-01-21T02:29:49.730Z,83.62
2023-01-21T02:32:30.175Z,82.94
2023-01-21T02:35:01.859Z,82.68
2023-01-21T02:37:38.767Z,82.97
2023-01-21T02:40:10.325Z,82.86
2023-01-21T02:43:01.193Z,83.47
2023-01-21T02:45:55.702Z,83.36
2023-01-21T02:48:28.956Z,83.57
2023-01-21T02:50:55.807Z,83.37
2023-01-21T02:53:31.022Z,83.27
2023-01-21T02:56:03.274Z,82.59
2023-01-21T02:58:33.949Z,82.84
2023-01-21T03:01:25.401Z,82.61
2023-01-21T03:04:15.573Z,83.12
2023-01-21T03:07:11.397Z,82.70
2023-01-21T03:09:38.124Z,82.92
2023-01-21T03:12:17.541Z,82.52
2023-01-21T03:15:15.050Z,82.48
2023-01-21T03:18:01.429Z,82.66
2023-01-21T03:20:36.995Z,82.42
2023-01-21T03:23:11.369Z,82.49
2023-01-21T03:25:39.063Z,82.96
2023-01-21T03:28:09.192Z,82.99
2023-01-21T03:30:39.609Z,82.88
2023-01-21T03:33:07.287Z,82.59
2023-01-21T03:35:38.655Z,82.45
2023-01-21T03:38:13.327Z,82.55
2023-01-21T03:41:13.584Z,82.33
2023-01-21T03:43:40.520Z,82.55
2023-01-21T03:46:11.273Z,81.97
2023-01-21T03:48:44.064Z,82.05
2023-01-21T03:51:14.035Z,82.00
2023-01-21T03:53:40.948Z,82.49
2023-01-21T03:56:07.895Z,82.31
2023-01-21T03:58:34.693Z,82.26
2023-01-21T04:01:01.529Z,82.17
2023-01-21T04:03:28.309Z,82.14
2023-01-21T04:05:55.066Z,82.13
2023-01-21T04:08:21.795Z,82.39
2023-01-21T04:10:48.527Z,82.23
2023-01-21T04:13:15.258Z,82.39
2023-01-21T04:15:41.981Z,82.56
2023-01-21T04:18:08.767Z,82.54
2023-01-21T04:20:35.500Z,82.45
2023-01-21T04:23:02.202Z,82.58
2023-01-21T04:25:28.954Z,82.74
2023-01-21T04:27:55.694Z,83.17
2023-01-21T04:30:22.452Z,83.03
2023-01-21T04:32:49.174Z,83.08
2023-01-21T04:35:15.938Z,82.62
2023-01-21T04:37:42.620Z,82.44
2023-01-21T04:40:10.220Z,82.77
2023-01-21T04:42:36.912Z,82.84
2023-01-21T04:45:04.205Z,82.61
2023-01-21T04:47:30.928Z,82.43
2023-01-21T04:49:57.677Z,82.25
2023-01-21T04:52:24.541Z,82.05
2023-01-21T04:54:51.288Z,82.13
2023-01-21T04:57:17.973Z,82.12
2023-01-21T04:59:44.754Z,82.77
2023-01-21T05:02:11.483Z,82.56
2023-01-21T05:04:38.328Z,82.48
2023-01-21T05:07:05.461Z,82.47
2023-01-21T05:09:32.188Z,83.06
2023-01-21T05:11:58.993Z,82.88
2023-01-21T05:14:25.767Z,83.20
2023-01-21T05:16:52.546Z,83.19
2023-01-21T05:19:19.230Z,83.80
2023-01-21T05:21:46.001Z,83.68
2023-01-21T05:24:12.719Z,83.58
2023-01-21T05:26:39.466Z,83.51
2023-01-21T05:29:06.220Z,83.36
2023-01-21T05:31:33.149Z,83.33
2023-01-21T05:34:00.073Z,82.91
2023-01-21T05:36:27.204Z,83.35
2023-01-21T05:38:54.023Z,82.75
2023-01-21T05:41:20.830Z,83.52
2023-01-21T05:43:47.556Z,83.53
2023-01-21T05:46:14.446Z,83.64
2023-01-21T05:48:41.276Z,83.12
2023-01-21T05:51:08.089Z,83.13
2023-01-21T05:53:34.853Z,82.91
2023-01-21T05:56:01.600Z,83.56
2023-01-21T05:58:28.320Z,83.63
2023-01-21T06:00:57.005Z,83.62
2023-01-21T06:03:24.242Z,83.28
2023-01-21T06:05:51.256Z,83.05
2023-01-21T06:08:18.455Z,82.93
2023-01-21T06:10:45.247Z,83.43
2023-01-21T06:13:13.855Z,82.99
2023-01-21T06:15:40.664Z,83.11
2023-01-21T06:18:07.915Z,82.88
2023-01-21T06:20:34.885Z,82.94
2023-01-21T06:23:03.596Z,83.17
2023-01-21T06:25:31.008Z,83.73
2023-01-21T06:27:58.391Z,83.18
2023-01-21T06:30:25.917Z,83.54
2023-01-21T06:32:52.770Z,83.10
2023-01-21T06:35:19.771Z,82.61
2023-01-21T06:37:46.900Z,82.52
2023-01-21T06:40:14.826Z,82.76
2023-01-21T06:42:41.862Z,82.79
2023-01-21T06:45:09.179Z,82.74
2023-01-21T06:47:35.941Z,82.32
2023-01-21T06:50:02.676Z,81.78
2023-01-21T06:52:29.393Z,82.19
2023-01-21T06:54:56.114Z,82.01
2023-01-21T06:57:23.564Z,82.78
2023-01-21T06:59:50.353Z,82.79
2023-01-21T07:02:17.066Z,82.38
2023-01-21T07:04:45.103Z,82.50
2023-01-21T07:07:11.873Z,82.44
2023-01-21T07:09:38.610Z,82.42
2023-01-21T07:12:05.501Z,82.42
2023-01-21T07:14:32.302Z,82.09
2023-01-21T07:16:59.329Z,81.68
2023-01-21T07:19:26.141Z,81.74
2023-01-21T07:21:53.898Z,81.89
2023-01-21T07:24:20.747Z,81.47
2023-01-21T07:26:48.252Z,81.77
2023-01-21T07:29:14.966Z,81.95
2023-01-21T07:31:41.893Z,81.40
2023-01-21T07:34:08.639Z,81.53
2023-01-21T07:36:35.641Z,81.60
2023-01-21T07:39:02.324Z,81.12
2023-01-21T07:41:29.094Z,81.10
2023-01-21T07:43:55.859Z,81.44
2023-01-21T07:46:23.196Z,81.52
2023-01-21T07:48:51.704Z,81.46
2023-01-21T07:51:19.787Z,81.71
2023-01-21T07:53:46.716Z,81.75
2023-01-21T07:56:13.803Z,81.84
2023-01-21T07:58:40.881Z,82.92
2023-01-21T08:01:08.989Z,82.80
2023-01-21T08:03:36.813Z,82.62
2023-01-21T08:06:05.048Z,82.02
2023-01-21T08:08:32.905Z,82.52
2023-01-21T08:10:59.620Z,81.78
2023-01-21T08:13:26.675Z,82.07
2023-01-21T08:15:55.391Z,82.09
2023-01-21T08:18:23.563Z,82.57
2023-01-21T08:20:58.085Z,82.00
2023-01-21T08:23:26.212Z,82.07
2023-01-21T08:25:53.552Z,82.09
2023-01-21T08:28:20.816Z,81.58
2023-01-21T08:30:47.651Z,81.61
2023-01-21T08:33:14.648Z,81.33
2023-01-21T08:35:41.395Z,81.32
2023-01-21T08:38:08.231Z,80.70
2023-01-21T08:40:35.123Z,80.40
2023-01-21T08:43:03.318Z,79.76
2023-01-21T08:45:30.695Z,79.73
2023-01-21T08:47:57.471Z,80.14
2023-01-21T08:50:24.479Z,79.93
2023-01-21T08:52:55.305Z,80.32
2023-01-21T08:55:26.717Z,80.88
2023-01-21T08:57:54.626Z,80.06
2023-01-21T09:00:22.960Z,80.49
2023-01-21T09:02:51.612Z,79.65
2023-01-21T09:05:19.142Z,79.50
2023-01-21T09:07:46.722Z,80.34
2023-01-21T09:10:33.902Z,80.86
2023-01-21T09:13:12.262Z,80.65
2023-01-21T09:15:40.685Z,80.71
2023-01-21T09:18:07.914Z,80.70
2023-01-21T09:20:35.051Z,81.03
2023-01-21T09:23:01.881Z,80.69
2023-01-21T09:25:28.604Z,80.75
2023-01-21T09:27:55.360Z,81.17
2023-01-21T09:30:22.077Z,80.01
2023-01-21T09:32:48.842Z,79.46
2023-01-21T09:35:15.834Z,78.86
2023-01-21T09:37:42.758Z,79.76
2023-01-21T09:40:14.934Z,79.31
2023-01-21T09:42:42.695Z,78.70
2023-01-21T09:45:13.642Z,79.00
2023-01-21T09:47:42.408Z,80.22
2023-01-21T09:50:20.809Z,80.01
2023-01-21T09:53:01.349Z,79.61
2023-01-21T09:55:41.353Z,79.90
2023-01-21T09:58:11.167Z,79.37
2023-01-21T10:00:54.393Z,79.57
2023-01-21T10:03:38.049Z,78.77
2023-01-21T10:06:20.617Z,78.13
2023-01-21T10:09:21.360Z,77.53
2023-01-21T10:11:48.083Z,78.34
2023-01-21T10:14:52.651Z,78.53
2023-01-21T10:17:25.277Z,78.64
2023-01-21T10:20:00.126Z,79.10
2023-01-21T10:22:28.142Z,78.94
2023-01-21T10:25:16.389Z,79.14
2023-01-21T10:27:44.740Z,78.03
2023-01-21T10:30:35.851Z,78.09
2023-01-21T10:33:02.654Z,78.55
2023-01-21T10:36:07.180Z,78.72
2023-01-21T10:39:06.409Z,78.29
2023-01-21T10:41:45.198Z,78.36
2023-01-21T10:44:17.611Z,79.21
2023-01-21T10:46:46.385Z,78.43
2023-01-21T10:49:36.904Z,78.72
2023-01-21T10:52:32.233Z,78.13
2023-01-21T10:55:02.406Z,79.56
2023-01-21T10:57:43.312Z,79.52
2023-01-21T11:00:23.176Z,79.22
2023-01-21T11:02:54.191Z,79.43
2023-01-21T11:05:21.364Z,79.29
2023-01-21T11:07:48.360Z,79.43
2023-01-21T11:10:22.469Z,79.12
2023-01-21T11:12:49.721Z,79.64
2023-01-21T11:15:19.708Z,79.54
2023-01-21T11:17:49.221Z,79.54
2023-01-21T11:20:22.056Z,78.83
2023-01-21T11:22:50.151Z,78.98
2023-01-21T11:25:41.449Z,78.80
2023-01-21T11:28:26.366Z,79.70
2023-01-21T11:31:05.367Z,78.98
2023-01-21T11:33:33.533Z,78.94
2023-01-21T11:36:13.788Z,79.08
2023-01-21T11:38:41.002Z,78.76
2023-01-21T11:41:16.777Z,78.63
2023-01-21T11:43:48.541Z,78.95
2023-01-21T11:46:37.346Z,78.91
2023-01-21T11:49:25.361Z,79.43
2023-01-21T11:52:06.860Z,79.39
2023-01-21T11:54:38.572Z,79.58
2023-01-21T11:57:05.352Z,79.44
2023-01-21T11:59:35.196Z,78.45
2023-01-21T12:02:08.069Z,78.58
2023-01-21T12:04:35.384Z,77.47
2023-01-21T12:07:02.545Z,76.44
2023-01-21T12:09:29.493Z,76.45
2023-01-21T12:12:26.818Z,75.78
2023-01-21T12:14:58.985Z,75.66
2023-01-21T12:17:39.808Z,75.36
2023-01-21T12:20:27.324Z,75.66
2023-01-21T12:23:07.069Z,76.05
2023-01-21T12:25:46.527Z,75.07
2023-01-21T12:28:46.748Z,75.16
2023-01-21T12:31:43.553Z,74.94
2023-01-21T12:34:21.995Z,74.61
2023-01-21T12:36:53.220Z,74.36
2023-01-21T12:39:24.172Z,74.93
2023-01-21T12:42:16.372Z,75.50
2023-01-21T12:44:51.291Z,75.69
2023-01-21T12:47:21.026Z,76.50
2023-01-21T12:49:55.056Z,75.88
2023-01-21T12:52:27.242Z,76.78
2023-01-21T12:55:01.670Z,76.92
2023-01-21T12:57:41.097Z,76.37
2023-01-21T13:00:24.710Z,76.84
2023-01-21T13:02:58.770Z,76.57
2023-01-21T13:06:09.214Z,77.18
2023-01-21T13:08:56.046Z,76.81
2023-01-21T13:11:33.320Z,77.24
2023-01-21T13:14:09.119Z,76.76
2023-01-21T13:16:41.994Z,77.48
2023-01-21T13:19:12.926Z,78.77
2023-01-21T13:21:56.893Z,77.57
2023-01-21T13:24:41.963Z,78.16
2023-01-21T13:27:47.752Z,77.92
2023-01-21T13:30:17.543Z,78.05
2023-01-21T13:32:56.361Z,79.18
2023-01-21T13:35:38.301Z,77.78
2023-01-21T13:38:19.947Z,77.57
2023-01-21T13:40:58.629Z,78.14
2023-01-21T13:44:02.415Z,77.47
2023-01-21T13:46:31.825Z,77.17
2023-01-21T13:49:35.440Z,78.37
2023-01-21T13:52:09.641Z,78.51
2023-01-21T13:54:48.408Z,78.71
2023-01-21T13:57:35.410Z,78.21
2023-01-21T14:00:22.449Z,77.12
2023-01-21T14:03:14.042Z,76.67
2023-01-21T14:05:42.489Z,76.88
2023-01-21T14:08:33.655Z,77.69
2023-01-21T14:11:16.695Z,77.96
2023-01-21T14:14:12.883Z,78.15
2023-01-21T14:17:01.303Z,76.44
2023-01-21T14:19:53.996Z,76.70
2023-01-21T14:22:39.322Z,77.88
2023-01-21T14:25:27.726Z,77.05
2023-01-21T14:28:06.383Z,76.77
2023-01-21T14:30:58.624Z,76.54
2023-01-21T14:33:44.277Z,77.22
2023-01-21T14:36:40.109Z,76.83
2023-01-21T14:39:45.970Z,76.54
2023-01-21T14:42:16.359Z,77.14
2023-01-21T14:44:49.287Z,76.77
2023-01-21T14:47:18.834Z,76.71
2023-01-21T14:49:48.452Z,78.10
2023-01-21T14:52:42.203Z,78.60
2023-01-21T14:55:24.223Z,79.11
2023-01-21T14:57:52.053Z,78.48
2023-01-21T15:00:18.822Z,79.44
2023-01-21T15:02:48.018Z,79.64
2023-01-21T15:05:20.814Z,79.53
2023-01-21T15:07:49.103Z,80.31
2023-01-21T15:10:20.442Z,80.16
2023-01-21T15:12:53.406Z,80.01
2023-01-21T15:15:32.962Z,80.41
2023-01-21T15:18:04.098Z,80.71
2023-01-21T15:20:42.921Z,80.89
2023-01-21T15:23:31.390Z,81.19
2023-01-21T15:26:13.011Z,81.51
2023-01-21T15:28:49.351Z,81.71
2023-01-21T15:31:22.042Z,81.81
2023-01-21T15:34:01.140Z,81.36
2023-01-21T15:36:34.775Z,82.10
2023-01-21T15:39:03.925Z,82.59
2023-01-21T15:41:48.682Z,81.91
2023-01-21T15:44:24.552Z,82.38
2023-01-21T15:47:05.093Z,82.65
2023-01-21T15:49:46.920Z,82.59
2023-01-21T15:52:55.542Z,82.80
2023-01-21T15:55:43.482Z,83.18
2023-01-21T15:58:46.095Z,82.77
2023-01-21T16:01:33.630Z,82.94
2023-01-21T16:04:23.930Z,83.08
2023-01-21T16:07:07.539Z,83.01
2023-01-21T16:10:16.268Z,82.33
2023-01-21T16:13:06.449Z,82.16
2023-01-21T16:15:57.225Z,82.45
2023-01-21T16:19:19.445Z,82.56
2023-01-21T16:21:49.733Z,82.80
2023-01-21T16:24:19.709Z,82.33
2023-01-21T16:26:46.508Z,82.68
2023-01-21T16:29:14.659Z,82.68
2023-01-21T16:31:52.175Z,82.96
2023-01-21T16:34:25.022Z,82.59
2023-01-21T16:36:51.930Z,82.46
2023-01-21T16:39:19.485Z,82.12
2023-01-21T16:42:00.246Z,82.57
2023-01-21T16:44:27.505Z,82.66
2023-01-21T16:46:54.363Z,81.81
2023-01-21T16:49:21.139Z,81.34
2023-01-21T16:52:06.130Z,81.58
2023-01-21T16:54:33.385Z,81.19
2023-01-21T16:57:25.625Z,81.38
2023-01-21T16:59:55.787Z,81.13
2023-01-21T17:02:27.002Z,80.78
2023-01-21T17:04:58.658Z,80.55
2023-01-21T17:07:31.748Z,80.18
2023-01-21T17:10:05.249Z,80.80
2023-01-21T17:12:34.607Z,80.93
2023-01-21T17:15:17.024Z,80.30
2023-01-21T17:17:44.158Z,80.35
2023-01-21T17:20:40.076Z,79.79
2023-01-21T17:23:17.500Z,80.72
2023-01-21T17:25:45.645Z,80.43
2023-01-21T17:28:28.877Z,80.54
2023-01-21T17:31:17.655Z,80.30
2023-01-21T17:33:44.588Z,79.93
2023-01-21T17:36:16.124Z,79.37
2023-01-21T17:38:45.840Z,79.68
2023-01-21T17:41:23.936Z,79.35
2023-01-21T17:43:51.995Z,79.36
2023-01-21T17:46:22.996Z,79.04
2023-01-21T17:49:07.646Z,79.02
2023-01-21T17:51:34.958Z,79.14
2023-01-21T17:54:04.472Z,78.88
2023-01-21T17:56:36.155Z,79.02
2023-01-21T17:59:03.137Z,78.62
2023-01-21T18:01:30.884Z,78.48
2023-01-21T18:03:57.882Z,77.97
2023-01-21T18:06:27.209Z,78.92
2023-01-21T18:08:56.984Z,78.55
2023-01-21T18:11:23.794Z,78.14
2023-01-21T18:13:51.450Z,77.74
2023-01-21T18:16:18.227Z,78.62
2023-01-21T18:18:45.364Z,78.43
2023-01-21T18:21:19.151Z,77.90
2023-01-21T18:23:46.380Z,78.08
2023-01-21T18:26:33.668Z,78.70
2023-01-21T18:29:00.488Z,77.68
2023-01-21T18:31:28.495Z,78.71
2023-01-21T18:33:55.623Z,78.94
2023-01-21T18:36:22.614Z,77.86
2023-01-21T18:38:49.379Z,77.65
2023-01-21T18:41:16.223Z,77.67
2023-01-21T18:43:43.199Z,78.26
2023-01-21T18:46:13.819Z,78.16
2023-01-21T18:48:42.790Z,77.10
2023-01-21T18:51:10.330Z,76.96
2023-01-21T18:53:37.368Z,76.94
2023-01-21T18:56:06.308Z,76.01
2023-01-21T18:58:33.254Z,76.34
2023-01-21T19:01:01.489Z,76.12
2023-01-21T19:03:32.792Z,76.83
2023-01-21T19:05:59.836Z,76.45
2023-01-21T19:08:28.846Z,76.66
2023-01-21T19:10:55.969Z,77.92
2023-01-21T19:13:22.955Z,77.30
2023-01-21T19:15:50.126Z,78.63
2023-01-21T19:18:17.274Z,77.51
2023-01-21T19:20:44.504Z,77.28
2023-01-21T19:23:15.643Z,77.57
2023-01-21T19:25:45.610Z,77.87
2023-01-21T19:28:13.632Z,78.23
2023-01-21T19:30:45.112Z,78.03
2023-01-21T19:33:12.582Z,77.79
2023-01-21T19:35:42.581Z,76.88
2023-01-21T19:38:16.212Z,77.50
2023-01-21T19:40:43.263Z,77.52
2023-01-21T19:43:14.951Z,77.89
2023-01-21T19:45:42.667Z,77.58
2023-01-21T19:48:17.996Z,78.18
2023-01-21T19:50:45.096Z,78.17
2023-01-21T19:53:15.231Z,78.52
2023-01-21T19:55:42.603Z,78.27
2023-01-21T19:58:19.378Z,78.66
2023-01-21T20:00:51.098Z,78.92
2023-01-21T20:03:19.351Z,78.35
2023-01-21T20:05:48.246Z,78.57
2023-01-21T20:08:19.765Z,79.07
2023-01-21T20:10:46.758Z,79.11
2023-01-21T20:13:15.018Z,79.02
2023-01-21T20:15:44.309Z,79.10
2023-01-21T20:18:18.388Z,79.20
2023-01-21T20:20:45.417Z,79.66
2023-01-21T20:23:16.849Z,79.48
2023-01-21T20:25:45.514Z,79.49
2023-01-21T20:28:18.324Z,79.80
2023-01-21T20:30:45.887Z,79.70
2023-01-21T20:33:15.329Z,80.60
2023-01-21T20:35:42.565Z,80.28
2023-01-21T20:38:13.870Z,80.81
2023-01-21T20:40:41.128Z,80.79
2023-01-21T20:43:09.449Z,81.04
2023-01-21T20:45:43.596Z,80.21
2023-01-21T20:48:18.782Z,80.21
2023-01-21T20:50:45.900Z,80.52
2023-01-21T20:53:13.701Z,81.06
2023-01-21T20:55:43.978Z,80.96
2023-01-21T20:58:13.604Z,81.06
2023-01-21T21:00:40.967Z,81.11
2023-01-21T21:03:08.300Z,81.05
2023-01-21T21:05:36.206Z,80.82
2023-01-21T21:08:03.764Z,80.52
2023-01-21T21:10:36.257Z,80.55
2023-01-21T21:13:03.529Z,80.55
2023-01-21T21:15:31.779Z,80.66
2023-01-21T21:17:59.037Z,80.38
2023-01-21T21:20:33.774Z,79.59
2023-01-21T21:23:00.728Z,79.17
2023-01-21T21:25:30.230Z,79.40
2023-01-21T21:27:57.729Z,79.65
2023-01-21T21:30:30.556Z,79.39
2023-01-21T21:32:58.727Z,79.73
2023-01-21T21:35:36.547Z,79.14
2023-01-21T21:38:08.278Z,79.16
2023-01-21T21:40:35.801Z,79.20
2023-01-21T21:43:21.213Z,79.04
2023-01-21T21:46:06.596Z,78.66
2023-01-21T21:48:39.864Z,79.18
2023-01-21T21:51:11.979Z,78.71
2023-01-21T21:53:39.560Z,78.67
2023-01-21T21:56:09.357Z,78.99
2023-01-21T21:58:36.608Z,78.55
2023-01-21T22:01:20.564Z,78.27
2023-01-21T22:03:47.497Z,79.03
2023-01-21T22:06:14.864Z,78.78
2023-01-21T22:08:42.360Z,78.62
2023-01-21T22:11:14.365Z,78.77
2023-01-21T22:13:43.481Z,78.60
2023-01-21T22:16:13.068Z,78.45
2023-01-21T22:18:40.279Z,79.03
2023-01-21T22:21:09.346Z,78.81
2023-01-21T22:23:36.818Z,79.20
2023-01-21T22:26:05.831Z,79.53
2023-01-21T22:28:34.472Z,78.89
2023-01-21T22:31:06.807Z,78.41
2023-01-21T22:33:34.534Z,78.60
2023-01-21T22:36:08.994Z,79.08
2023-01-21T22:38:38.264Z,78.93
2023-01-21T22:41:06.967Z,78.56
2023-01-21T22:43:34.472Z,78.98
2023-01-21T22:46:01.592Z,78.91
2023-01-21T22:48:28.815Z,79.03
2023-01-21T22:50:57.994Z,78.40
2023-01-21T22:53:25.903Z,78.93
2023-01-21T22:55:57.397Z,78.63
2023-01-21T22:58:24.972Z,79.53
2023-01-21T23:00:52.659Z,78.39
2023-01-21T23:03:20.003Z,78.33
2023-01-21T23:05:46.942Z,77.90
2023-01-21T23:08:14.445Z,77.96
2023-01-21T23:10:42.536Z,78.62
2023-01-21T23:13:10.366Z,78.04
2023-01-21T23:15:41.167Z,77.80
2023-01-21T23:18:07.982Z,78.30
2023-01-21T23:20:36.616Z,77.94
2023-01-21T23:23:03.419Z,77.35
2023-01-21T23:25:30.123Z,77.31
2023-01-21T23:27:56.892Z,77.81
2023-01-21T23:30:23.621Z,77.94
2023-01-21T23:32:50.376Z,77.85
2023-01-21T23:35:19.060Z,77.82
2023-01-21T23:37:45.759Z,77.53
2023-01-21T23:40:12.777Z,77.58
2023-01-21T23:42:39.619Z,77.50
2023-01-21T23:45:06.720Z,77.37
2023-01-21T23:47:33.428Z,77.33
2023-01-21T23:50:00.313Z,77.64
2023-01-21T23:52:27.036Z,77.55
2023-01-21T23:54:53.871Z,77.81
2023-01-21T23:57:20.659Z,77.95
2023-01-21T23:59:47.500Z,77.88
